Time;durP1;ratioP1;P1;durP2;ratioP2;P2;SDS_P1;SDS_P2;PMS_P1;PMS_P2;Temp;Humidity;BMP_temperature;BMP_pressure;BME280_temperature;BME280_humidity;BME280_pressure;Samples;Min_cycle;Max_cycle;Signal;HPM_P1;HPM_P2
2023/05/11 00:02:22;;;;;;;3.20;1.63;;;8.50;99.90;;;;;;7600054;19;20022;-77
2023/05/11 00:04:55;;;;;;;4.35;2.00;;;8.50;99.90;;;;;;7600763;19;20058;-78
2023/05/11 00:07:27;;;;;;;5.00;1.90;;;8.50;99.90;;;;;;7593382;19;20049;-78
2023/05/11 00:10:00;;;;;;;1.92;1.73;;;8.50;99.90;;;;;;7600614;19;20018;-77
2023/05/11 00:12:32;;;;;;;3.10;2.00;;;8.50;99.90;;;;;;7596588;19;20041;-77
2023/05/11 00:15:05;;;;;;;4.72;1.98;;;8.50;99.90;;;;;;7606414;19;20343;-77
2023/05/11 00:17:37;;;;;;;4.53;2.37;;;8.50;99.90;;;;;;7602919;19;20014;-75
2023/05/11 00:20:09;;;;;;;4.43;2.08;;;8.50;99.90;;;;;;7601913;19;20069;-76
2023/05/11 00:22:45;;;;;;;3.20;1.98;;;8.50;99.90;;;;;;7606816;19;21094;-75
2023/05/11 00:25:18;;;;;;;5.43;1.85;;;8.50;99.90;;;;;;7596367;19;20578;-75
2023/05/11 00:27:50;;;;;;;4.45;1.80;;;8.50;99.90;;;;;;7608967;19;20037;-75
2023/05/11 00:30:22;;;;;;;4.15;2.50;;;8.60;99.90;;;;;;7596434;19;20018;-75
2023/05/11 00:32:55;;;;;;;26.55;2.28;;;8.50;99.90;;;;;;7591177;19;20019;-75
2023/05/11 00:35:27;;;;;;;4.67;2.27;;;8.50;99.90;;;;;;7585456;19;20025;-76
2023/05/11 00:38:00;;;;;;;3.30;2.13;;;8.50;99.90;;;;;;7592641;19;20161;-76
2023/05/11 00:40:32;;;;;;;3.28;2.22;;;8.50;99.90;;;;;;7596763;19;20015;-75
2023/05/11 00:43:05;;;;;;;5.00;2.35;;;8.50;99.90;;;;;;7591120;19;20018;-75
2023/05/11 00:45:38;;;;;;;4.93;2.40;;;8.50;99.90;;;;;;7593264;19;20021;-75
2023/05/11 00:48:11;;;;;;;5.25;2.58;;;8.50;99.90;;;;;;7592413;19;20097;-75
2023/05/11 00:50:43;;;;;;;5.20;2.50;;;8.50;99.90;;;;;;7585823;19;20047;-75
2023/05/11 00:53:16;;;;;;;5.87;2.77;;;8.50;99.90;;;;;;7585273;19;20017;-76
2023/05/11 00:55:48;;;;;;;6.70;2.60;;;8.50;99.90;;;;;;7579896;19;20015;-76
2023/05/11 00:58:21;;;;;;;2.63;1.98;;;8.50;99.90;;;;;;7584903;19;20015;-76
2023/05/11 01:00:53;;;;;;;3.40;2.38;;;8.50;99.90;;;;;;7595659;19;20379;-75
2023/05/11 01:03:25;;;;;;;6.45;3.13;;;8.60;99.90;;;;;;7581568;19;20071;-75
2023/05/11 01:06:28;;;;;;;2.92;2.38;;;8.50;99.90;;;;;;7587300;19;20023;-76
2023/05/11 01:09:00;;;;;;;6.28;2.60;;;8.50;99.90;;;;;;7595517;19;20399;-75
2023/05/11 01:11:48;;;;;;;7.13;2.80;;;8.50;99.90;;;;;;7598066;19;20357;-75
2023/05/11 01:14:34;;;;;;;5.93;2.63;;;8.60;99.90;;;;;;7589987;19;20018;-75
2023/05/11 01:17:22;;;;;;;5.90;2.30;;;8.50;99.90;;;;;;7572022;19;20022;-75
2023/05/11 01:20:04;;;;;;;3.22;2.00;;;8.50;99.90;;;;;;7590173;19;20628;-75
2023/05/11 01:22:43;;;;;;;3.90;2.30;;;8.50;99.90;;;;;;7570225;19;20018;-75
2023/05/11 01:26:04;;;;;;;2.53;1.90;;;8.50;99.90;;;;;;7579393;19;20022;-76
2023/05/11 01:28:51;;;;;;;4.90;2.25;;;8.50;99.90;;;;;;7598017;19;20082;-76
2023/05/11 01:31:28;;;;;;;3.38;2.20;;;8.50;99.90;;;;;;7572660;19;20030;-75
2023/05/11 01:34:05;;;;;;;4.82;2.67;;;8.50;99.90;;;;;;7573100;19;20454;-76
2023/05/11 01:36:44;;;;;;;3.35;1.92;;;8.50;99.90;;;;;;7586638;19;20023;-76
2023/05/11 01:39:21;;;;;;;3.10;2.20;;;8.50;99.90;;;;;;7586274;19;20019;-76
2023/05/11 01:41:55;;;;;;;3.25;2.22;;;8.50;99.90;;;;;;7602582;19;20709;-76
2023/05/11 01:44:32;;;;;;;6.28;2.30;;;8.50;99.90;;;;;;7565787;19;20082;-76
2023/05/11 01:47:07;;;;;;;3.95;2.88;;;8.50;99.90;;;;;;7592514;19;20133;-76
2023/05/11 01:49:42;;;;;;;5.65;2.28;;;8.50;99.90;;;;;;7580413;19;20014;-76
2023/05/11 01:52:17;;;;;;;3.42;1.95;;;8.50;99.90;;;;;;7589431;19;20006;-75
2023/05/11 01:54:51;;;;;;;4.82;2.03;;;8.40;99.90;;;;;;7583336;19;20022;-76
2023/05/11 01:57:24;;;;;;;3.63;1.75;;;8.50;99.90;;;;;;7591432;19;20025;-77
2023/05/11 02:00:00;;;;;;;2.95;1.90;;;8.50;99.90;;;;;;7585967;19;20053;-77
2023/05/11 02:02:34;;;;;;;3.38;1.98;;;8.40;99.90;;;;;;7588105;19;20007;-77
2023/05/11 02:05:07;;;;;;;5.13;2.10;;;8.40;99.90;;;;;;7568643;19;20031;-78
2023/05/11 02:07:43;;;;;;;4.65;1.63;;;8.40;99.90;;;;;;7578480;19;20143;-77
2023/05/11 02:10:17;;;;;;;4.47;1.98;;;8.40;99.90;;;;;;7589749;19;20018;-78
2023/05/11 02:12:51;;;;;;;4.43;2.03;;;8.40;99.90;;;;;;7573191;19;20011;-77
2023/05/11 02:15:25;;;;;;;5.00;2.30;;;8.40;99.90;;;;;;7583030;19;20014;-77
2023/05/11 02:17:58;;;;;;;3.05;1.95;;;8.40;99.90;;;;;;7595925;19;20018;-75
2023/05/11 02:20:32;;;;;;;2.85;1.88;;;8.40;99.90;;;;;;7580808;19;20024;-76
2023/05/11 02:23:07;;;;;;;4.65;2.13;;;8.40;99.90;;;;;;7590253;19;21000;-76
2023/05/11 02:25:40;;;;;;;3.08;1.95;;;8.40;99.90;;;;;;7581077;19;20049;-74
2023/05/11 02:28:13;;;;;;;4.13;1.88;;;8.30;99.90;;;;;;7578869;19;20011;-75
2023/05/11 02:30:49;;;;;;;2.03;1.55;;;8.40;99.90;;;;;;7592627;19;20011;-75
2023/05/11 02:33:31;;;;;;;1.75;1.58;;;8.40;99.90;;;;;;7593694;19;20387;-75
2023/05/11 02:36:05;;;;;;;4.13;2.00;;;8.30;99.90;;;;;;7590309;19;20015;-76
2023/05/11 02:38:42;;;;;;;3.55;1.80;;;8.30;99.90;;;;;;7593999;19;20022;-75
2023/05/11 02:41:20;;;;;;;3.58;1.65;;;8.30;99.90;;;;;;7593069;19;20018;-76
2023/05/11 02:43:58;;;;;;;2.10;1.65;;;8.30;99.90;;;;;;7598600;19;20018;-75
2023/05/11 02:46:34;;;;;;;3.15;1.88;;;8.30;99.90;;;;;;7589946;19;20026;-76
2023/05/11 02:49:09;;;;;;;1.83;1.45;;;8.30;99.90;;;;;;7588211;19;20025;-75
2023/05/11 02:51:43;;;;;;;2.03;1.40;;;8.30;99.90;;;;;;7576315;19;20494;-76
2023/05/11 02:54:17;;;;;;;3.55;1.80;;;8.30;99.90;;;;;;7568585;19;20041;-76
2023/05/11 02:56:55;;;;;;;2.45;1.50;;;8.30;99.90;;;;;;7574614;19;20018;-75
2023/05/11 02:59:29;;;;;;;3.03;1.35;;;8.20;99.90;;;;;;7585381;19;20274;-75
2023/05/11 03:02:01;;;;;;;4.40;1.80;;;8.30;99.90;;;;;;7584495;19;20011;-75
2023/05/11 03:04:34;;;;;;;1.92;1.42;;;8.20;99.90;;;;;;7565342;19;20075;-76
2023/05/11 03:07:08;;;;;;;1.27;1.15;;;8.20;99.90;;;;;;7571737;19;20019;-75
2023/05/11 03:09:40;;;;;;;2.00;1.35;;;8.20;99.90;;;;;;7579781;19;20048;-75
2023/05/11 03:12:13;;;;;;;5.65;1.92;;;8.10;99.90;;;;;;7572726;19;20018;-75
2023/05/11 03:14:47;;;;;;;2.30;1.90;;;8.10;99.90;;;;;;7581597;19;20018;-76
2023/05/11 03:17:20;;;;;;;1.95;1.63;;;8.10;99.90;;;;;;7588550;19;20014;-76
2023/05/11 03:19:55;;;;;;;4.90;1.40;;;8.10;99.90;;;;;;7590921;19;20018;-76
2023/05/11 03:22:30;;;;;;;2.17;1.60;;;8.10;99.90;;;;;;7590772;19;20015;-75
2023/05/11 03:25:04;;;;;;;1.20;1.10;;;8.10;99.90;;;;;;7584340;19;20022;-75
2023/05/11 03:27:40;;;;;;;2.75;1.20;;;8.10;99.90;;;;;;7586551;19;20085;-75
2023/05/11 03:30:14;;;;;;;1.42;1.25;;;8.00;99.90;;;;;;7585780;19;20025;-76
2023/05/11 03:32:51;;;;;;;1.85;1.00;;;8.10;99.90;;;;;;7594427;19;20082;-75
2023/05/11 03:35:26;;;;;;;1.60;1.10;;;8.00;99.90;;;;;;7582551;19;21206;-75
2023/05/11 03:38:00;;;;;;;1.52;1.20;;;8.00;99.90;;;;;;7591649;19;20028;-75
2023/05/11 03:40:33;;;;;;;;;;;8.00;99.90;;;;;;7577092;19;20034;-76
2023/05/11 03:43:07;;;;;;;1.25;0.93;;;8.00;99.90;;;;;;7598303;19;21265;-75
2023/05/11 03:45:42;;;;;;;3.35;1.38;;;7.90;99.90;;;;;;7607310;19;20042;-75
2023/05/11 03:48:17;;;;;;;4.25;1.10;;;7.90;99.90;;;;;;7580658;19;20094;-76
2023/05/11 03:50:51;;;;;;;1.80;1.10;;;7.90;99.90;;;;;;7594519;19;20053;-76
2023/05/11 03:53:24;;;;;;;1.10;0.98;;;7.90;99.90;;;;;;7590964;19;20021;-75
2023/05/11 03:55:57;;;;;;;1.05;0.93;;;7.90;99.90;;;;;;7570352;19;21127;-74
2023/05/11 03:58:30;;;;;;;1.63;1.38;;;7.90;99.90;;;;;;7581459;19;22535;-75
2023/05/11 04:01:02;;;;;;;1.52;1.20;;;7.90;99.90;;;;;;7577561;19;20021;-76
2023/05/11 04:03:45;;;;;;;4.38;1.30;;;7.90;99.90;;;;;;7576036;19;20886;-75
2023/05/11 04:06:19;;;;;;;8.83;1.20;;;7.90;99.90;;;;;;7575874;19;20030;-76
2023/05/11 04:08:57;;;;;;;2.63;1.08;;;7.90;99.90;;;;;;7585841;19;20014;-76
2023/05/11 04:11:35;;;;;;;2.00;1.30;;;7.90;99.90;;;;;;7575890;19;20015;-75
2023/05/11 04:14:08;;;;;;;3.88;1.10;;;7.80;99.90;;;;;;7591463;19;20677;-76
2023/05/11 04:16:41;;;;;;;4.50;1.17;;;7.80;99.90;;;;;;7571149;19;20078;-76
2023/05/11 04:19:13;;;;;;;2.65;1.00;;;7.80;99.90;;;;;;7564903;19;20053;-76
2023/05/11 04:21:46;;;;;;;3.65;1.60;;;7.80;99.90;;;;;;7572333;19;20417;-76
2023/05/11 04:24:18;;;;;;;1.40;0.95;;;7.80;99.90;;;;;;7565132;19;20048;-76
2023/05/11 04:26:56;;;;;;;1.00;0.90;;;7.80;99.90;;;;;;7562027;19;20011;-76
2023/05/11 04:29:29;;;;;;;2.67;1.42;;;7.80;99.90;;;;;;7581455;19;20014;-76
2023/05/11 04:32:01;;;;;;;2.50;1.15;;;7.80;99.90;;;;;;7600135;19;20019;-76
2023/05/11 04:34:34;;;;;;;2.95;1.30;;;7.80;99.90;;;;;;7577681;19;20077;-76
2023/05/11 04:37:10;;;;;;;1.60;1.08;;;7.80;99.90;;;;;;7584726;19;20010;-73
2023/05/11 04:39:43;;;;;;;2.00;1.02;;;7.80;99.90;;;;;;7584351;19;20015;-76
2023/05/11 04:42:16;;;;;;;1.85;1.10;;;7.80;99.90;;;;;;7552469;19;20010;-76
2023/05/11 04:44:53;;;;;;;4.57;1.10;;;7.70;99.90;;;;;;7593472;19;20646;-76
2023/05/11 04:47:26;;;;;;;;;;;7.70;99.90;;;;;;7591973;19;20064;-77
2023/05/11 04:49:59;;;;;;;1.48;0.88;;;7.70;99.90;;;;;;7614203;19;19911;-76
2023/05/11 04:52:31;;;;;;;3.55;1.15;;;7.70;99.90;;;;;;7584980;19;20016;-77
2023/05/11 04:55:08;;;;;;;2.05;1.20;;;7.70;99.90;;;;;;7576446;19;20025;-76
2023/05/11 04:57:42;;;;;;;2.63;1.20;;;7.70;99.90;;;;;;7575108;19;20018;-77
2023/05/11 05:00:15;;;;;;;2.35;1.38;;;7.60;99.90;;;;;;7559613;19;20446;-77
2023/05/11 05:02:49;;;;;;;2.60;1.15;;;7.60;99.90;;;;;;7587233;19;20112;-77
2023/05/11 05:05:23;;;;;;;5.90;1.00;;;7.60;99.90;;;;;;7563411;19;20015;-76
2023/05/11 05:07:55;;;;;;;1.57;1.17;;;7.60;99.90;;;;;;7559734;19;20037;-77
2023/05/11 05:10:29;;;;;;;1.80;1.20;;;7.60;99.90;;;;;;7570175;19;20278;-74
2023/05/11 05:13:02;;;;;;;1.70;1.02;;;7.60;99.90;;;;;;7580980;19;20078;-74
2023/05/11 05:15:35;;;;;;;1.50;1.17;;;7.60;99.90;;;;;;7573360;19;20943;-73
2023/05/11 05:18:08;;;;;;;1.48;1.10;;;7.60;99.90;;;;;;7591755;19;20343;-81
2023/05/11 05:20:41;;;;;;;1.75;0.90;;;7.60;99.90;;;;;;7579757;19;20018;-80
2023/05/11 05:23:14;;;;;;;1.13;0.90;;;7.60;99.90;;;;;;7589074;19;20010;-82
2023/05/11 05:25:46;;;;;;;3.90;1.00;;;7.60;99.90;;;;;;7580563;19;20399;-78
2023/05/11 05:28:19;;;;;;;1.20;1.10;;;7.60;99.90;;;;;;7542475;19;20448;-79
2023/05/11 05:30:51;;;;;;;2.78;1.20;;;7.60;99.90;;;;;;7561330;19;20013;-80
2023/05/11 05:33:24;;;;;;;0.98;0.80;;;7.60;99.90;;;;;;7527322;19;20018;-79
2023/05/11 05:35:56;;;;;;;1.33;1.00;;;7.60;99.90;;;;;;7517307;19;20028;-80
2023/05/11 05:38:29;;;;;;;1.70;1.08;;;7.60;99.90;;;;;;7547527;19;20017;-81
2023/05/11 05:41:04;;;;;;;1.10;0.90;;;7.60;99.90;;;;;;7519205;19;20010;-82
2023/05/11 05:43:40;;;;;;;1.63;1.00;;;7.60;99.90;;;;;;7581090;19;20010;-81
2023/05/11 05:46:13;;;;;;;1.98;0.80;;;7.60;99.90;;;;;;7585093;19;20022;-80
2023/05/11 05:48:46;;;;;;;2.83;1.00;;;7.60;99.90;;;;;;7598750;19;20026;-78
2023/05/11 05:51:19;;;;;;;1.70;0.80;;;7.60;99.90;;;;;;7587593;19;20082;-78
2023/05/11 05:53:51;;;;;;;2.28;1.10;;;7.60;99.90;;;;;;7564433;19;20011;-77
2023/05/11 05:56:25;;;;;;;1.02;0.93;;;7.60;99.90;;;;;;7587432;19;20022;-80
2023/05/11 05:59:00;;;;;;;1.15;0.90;;;7.60;99.90;;;;;;7597289;19;20485;-79
2023/05/11 06:01:34;;;;;;;4.32;1.58;;;7.50;99.90;;;;;;7602720;19;20671;-81
2023/05/11 06:04:06;;;;;;;0.73;0.70;;;7.50;99.90;;;;;;7573197;19;20023;-79
2023/05/11 06:06:40;;;;;;;0.70;0.70;;;7.60;99.90;;;;;;7549153;19;20107;-79
2023/05/11 06:09:13;;;;;;;2.05;1.20;;;7.60;99.90;;;;;;7553052;19;20369;-80
2023/05/11 06:11:47;;;;;;;2.25;1.00;;;7.60;99.90;;;;;;7585258;19;20948;-78
2023/05/11 06:14:21;;;;;;;1.05;1.00;;;7.60;99.90;;;;;;7562397;19;20708;-80
2023/05/11 06:16:54;;;;;;;0.90;0.80;;;7.60;99.90;;;;;;7576431;19;20013;-76
2023/05/11 06:19:26;;;;;;;2.20;0.82;;;7.60;99.90;;;;;;7572568;19;20018;-81
2023/05/11 06:21:59;;;;;;;0.93;0.75;;;7.60;99.90;;;;;;7574587;19;20022;-79
2023/05/11 06:24:33;;;;;;;1.23;0.95;;;7.60;99.90;;;;;;7547360;19;20065;-80
2023/05/11 06:27:06;;;;;;;3.17;1.15;;;7.60;99.90;;;;;;7572561;19;20022;-79
2023/05/11 06:29:41;;;;;;;2.10;1.40;;;7.60;99.90;;;;;;7572011;19;20873;-80
2023/05/11 06:32:13;;;;;;;2.00;1.20;;;7.60;99.90;;;;;;7593848;19;20014;-79
2023/05/11 06:34:46;;;;;;;2.08;0.73;;;7.70;99.90;;;;;;7582960;19;20025;-78
2023/05/11 06:37:19;;;;;;;3.60;1.73;;;7.70;99.90;;;;;;7597404;19;20006;-82
2023/05/11 06:39:54;;;;;;;23.02;16.92;;;7.70;99.90;;;;;;7589178;19;20124;-78
2023/05/11 06:42:27;;;;;;;5.83;3.77;;;7.70;99.90;;;;;;7598364;19;21491;-80
2023/05/11 06:45:09;;;;;;;4.45;2.20;;;7.80;99.90;;;;;;7588315;19;20282;-79
2023/05/11 06:47:45;;;;;;;1.92;1.40;;;7.70;99.90;;;;;;7586616;19;20026;-82
2023/05/11 06:50:18;;;;;;;3.45;1.25;;;7.70;99.90;;;;;;7554542;19;20487;-77
2023/05/11 06:52:53;;;;;;;2.72;1.50;;;7.80;99.90;;;;;;7593465;19;20018;-81
2023/05/11 06:55:26;;;;;;;3.43;1.03;;;7.80;99.90;;;;;;7574850;19;21213;-79
2023/05/11 06:57:58;;;;;;;3.03;1.17;;;7.80;99.90;;;;;;7586840;19;20048;-80
2023/05/11 07:00:30;;;;;;;4.78;1.38;;;7.80;99.90;;;;;;7589785;19;20022;-80
2023/05/11 07:03:03;;;;;;;1.92;1.10;;;7.80;99.90;;;;;;7589176;19;20715;-80
2023/05/11 07:05:36;;;;;;;2.53;1.87;;;7.80;99.90;;;;;;7598002;19;20018;-79
2023/05/11 07:08:08;;;;;;;2.28;1.55;;;7.80;99.90;;;;;;7582917;19;20072;-79
2023/05/11 07:10:41;;;;;;;2.00;1.35;;;7.80;99.90;;;;;;7589893;19;20010;-78
2023/05/11 07:13:13;;;;;;;3.17;1.48;;;7.90;99.90;;;;;;7594083;19;20047;-78
2023/05/11 07:15:45;;;;;;;1.60;1.20;;;7.90;99.90;;;;;;7598406;19;20019;-80
2023/05/11 07:18:18;;;;;;;2.60;1.48;;;7.80;99.90;;;;;;7581802;19;20512;-79
2023/05/11 07:20:50;;;;;;;2.72;1.40;;;7.80;99.90;;;;;;7601488;19;20010;-79
2023/05/11 07:23:23;;;;;;;1.83;1.08;;;7.90;99.90;;;;;;7589443;19;20014;-81
2023/05/11 07:25:56;;;;;;;3.85;1.35;;;7.90;99.90;;;;;;7585200;19;20695;-81
2023/05/11 07:28:29;;;;;;;1.77;1.23;;;7.90;99.90;;;;;;7593148;19;20466;-80
2023/05/11 07:31:01;;;;;;;2.47;1.48;;;7.90;99.90;;;;;;7577796;19;20022;-78
2023/05/11 07:33:36;;;;;;;1.25;1.15;;;7.90;99.90;;;;;;7583718;19;20069;-79
2023/05/11 07:36:09;;;;;;;3.03;1.27;;;7.90;99.90;;;;;;7582603;19;20006;-81
2023/05/11 07:38:41;;;;;;;3.08;1.55;;;8.00;99.90;;;;;;7582709;19;20027;-79
2023/05/11 07:41:13;;;;;;;2.00;1.45;;;8.00;99.90;;;;;;7570796;19;20018;-79
2023/05/11 07:43:46;;;;;;;4.57;1.93;;;8.00;99.90;;;;;;7584753;19;20589;-81
2023/05/11 07:46:18;;;;;;;5.68;1.60;;;8.00;99.90;;;;;;7589405;19;20019;-81
2023/05/11 07:48:50;;;;;;;1.60;1.20;;;8.10;99.90;;;;;;7583106;19;20018;-79
2023/05/11 07:51:38;;;;;;;2.20;1.52;;;8.10;99.90;;;;;;7592030;19;20042;-83
2023/05/11 07:54:10;;;;;;;2.45;0.88;;;8.10;99.90;;;;;;7595679;19;20416;-77
2023/05/11 07:56:42;;;;;;;2.60;1.20;;;8.10;99.90;;;;;;7595882;19;20043;-80
2023/05/11 07:59:15;;;;;;;4.13;1.10;;;8.10;99.90;;;;;;7597007;19;20641;-80
2023/05/11 08:01:48;;;;;;;1.73;1.30;;;8.20;99.90;;;;;;7586106;19;21028;-78
2023/05/11 08:04:20;;;;;;;1.27;1.17;;;8.30;99.90;;;;;;7600207;19;20018;-78
2023/05/11 08:06:52;;;;;;;2.00;1.13;;;8.30;99.90;;;;;;7592292;19;20384;-79
2023/05/11 08:09:24;;;;;;;1.38;0.98;;;8.30;99.90;;;;;;7598716;19;20019;-80
2023/05/11 08:12:00;;;;;;;1.58;0.90;;;8.30;99.90;;;;;;7605264;19;20049;-79
2023/05/11 08:14:33;;;;;;;1.17;0.70;;;8.40;99.90;;;;;;7609015;19;20439;-80
2023/05/11 08:17:05;;;;;;;1.05;0.70;;;8.40;99.90;;;;;;7613506;19;20018;-78
2023/05/11 08:19:37;;;;;;;1.35;0.80;;;8.40;99.90;;;;;;7608717;19;20018;-81
2023/05/11 08:22:11;;;;;;;1.13;0.97;;;8.40;99.90;;;;;;7622530;19;20014;-77
2023/05/11 08:24:45;;;;;;;1.13;0.93;;;8.40;99.90;;;;;;7610753;19;21174;-80
2023/05/11 08:27:18;;;;;;;1.65;1.10;;;8.40;99.90;;;;;;7617443;19;20014;-81
2023/05/11 08:29:50;;;;;;;0.90;0.80;;;8.50;99.90;;;;;;7613040;19;20017;-77
2023/05/11 08:32:23;;;;;;;2.17;0.93;;;8.50;99.90;;;;;;7607321;19;26587;-80
2023/05/11 08:34:56;;;;;;;1.92;0.90;;;8.50;99.90;;;;;;7607448;19;20018;-81
2023/05/11 08:37:30;;;;;;;0.87;0.87;;;8.60;99.90;;;;;;7605584;19;20026;-81
2023/05/11 08:40:03;;;;;;;0.75;0.70;;;8.60;99.90;;;;;;7612063;19;20014;-77
2023/05/11 08:42:38;;;;;;;2.53;1.13;;;8.60;99.90;;;;;;7608404;19;20074;-81
2023/05/11 08:45:12;;;;;;;1.60;1.30;;;8.70;99.90;;;;;;7603475;19;20105;-83
2023/05/11 08:47:45;;;;;;;2.05;1.20;;;8.80;99.90;;;;;;7604067;19;20018;-81
2023/05/11 08:50:17;;;;;;;1.35;1.08;;;8.80;99.90;;;;;;7604413;19;20039;-81
2023/05/11 08:52:49;;;;;;;2.08;1.30;;;8.90;99.90;;;;;;7591119;19;20082;-81
2023/05/11 08:55:25;;;;;;;3.90;1.80;;;8.80;99.90;;;;;;7608637;19;20061;-78
2023/05/11 08:57:59;;;;;;;3.80;1.65;;;8.90;99.90;;;;;;7601083;19;20019;-81
2023/05/11 09:00:32;;;;;;;2.53;1.40;;;8.90;99.90;;;;;;7603925;19;20025;-78
2023/05/11 09:03:07;;;;;;;1.98;1.30;;;9.00;99.90;;;;;;7605703;19;20487;-81
2023/05/11 09:05:40;;;;;;;2.10;1.30;;;9.00;99.90;;;;;;7596920;19;20018;-83
2023/05/11 09:08:14;;;;;;;2.47;1.40;;;9.10;99.90;;;;;;7604891;19;20375;-83
2023/05/11 09:10:48;;;;;;;5.07;1.30;;;9.00;99.90;;;;;;7610755;19;20015;-79
2023/05/11 09:13:20;;;;;;;4.43;1.60;;;9.00;99.90;;;;;;7607227;19;20575;-84
2023/05/11 09:15:52;;;;;;;2.80;1.13;;;9.10;99.90;;;;;;7588508;19;20022;-79
2023/05/11 09:18:25;;;;;;;3.10;1.20;;;9.00;99.90;;;;;;7598583;19;20403;-82
2023/05/11 09:21:00;;;;;;;2.72;1.50;;;9.00;99.90;;;;;;7606184;19;20011;-80
2023/05/11 09:23:33;;;;;;;2.80;1.42;;;9.00;99.90;;;;;;7595457;19;20849;-81
2023/05/11 09:26:16;;;;;;;2.65;1.67;;;9.00;99.90;;;;;;7605214;19;20019;-81
2023/05/11 09:28:49;;;;;;;1.67;1.00;;;9.10;99.90;;;;;;7605010;19;20022;-80
2023/05/11 09:31:40;;;;;;;1.25;0.73;;;9.10;99.90;;;;;;7610642;19;20022;-78
2023/05/11 09:34:21;;;;;;;2.97;1.27;;;9.20;99.90;;;;;;7599650;19;20022;-81
2023/05/11 09:36:55;;;;;;;2.25;0.93;;;9.10;99.90;;;;;;7597765;19;20096;-80
2023/05/11 09:39:33;;;;;;;3.05;1.40;;;9.10;99.90;;;;;;7593158;19;20010;-81
2023/05/11 09:42:16;;;;;;;2.50;1.60;;;9.10;99.90;;;;;;7608765;19;20022;-79
2023/05/11 09:44:49;;;;;;;4.70;1.48;;;9.20;99.90;;;;;;7603126;19;20046;-80
2023/05/11 09:47:21;;;;;;;2.08;1.40;;;9.30;99.90;;;;;;7595450;19;20029;-82
2023/05/11 09:49:54;;;;;;;1.13;0.80;;;9.30;99.90;;;;;;7604396;19;20021;-80
2023/05/11 09:52:26;;;;;;;1.10;0.73;;;9.30;99.90;;;;;;7595090;19;20017;-79
2023/05/11 09:55:09;;;;;;;1.50;1.13;;;9.30;99.90;;;;;;7589751;19;20060;-79
2023/05/11 09:57:41;;;;;;;1.92;1.23;;;9.40;99.90;;;;;;7602732;19;20026;-79
2023/05/11 10:00:14;;;;;;;1.33;1.17;;;9.40;99.90;;;;;;7613716;19;20090;-79
2023/05/11 10:03:02;;;;;;;1.33;1.10;;;9.50;99.90;;;;;;7603838;19;20010;-79
2023/05/11 10:05:35;;;;;;;1.77;1.10;;;9.40;99.90;;;;;;7599766;19;20487;-83
2023/05/11 10:08:09;;;;;;;1.63;1.17;;;9.40;99.90;;;;;;7623560;19;20014;-79
2023/05/11 10:10:41;;;;;;;1.10;0.98;;;9.50;99.90;;;;;;7611228;19;20018;-82
2023/05/11 10:13:15;;;;;;;;;;;9.40;99.90;;;;;;7627903;19;20031;-81
2023/05/11 10:15:50;;;;;;;1.52;1.10;;;9.40;99.90;;;;;;7614152;19;20001;-82
2023/05/11 10:18:24;;;;;;;1.85;1.50;;;9.40;99.90;;;;;;7618061;19;20015;-80
2023/05/11 10:20:57;;;;;;;2.10;1.43;;;9.50;99.90;;;;;;7603990;19;20022;-77
2023/05/11 10:23:32;;;;;;;7.32;1.77;;;9.50;99.90;;;;;;7619246;19;20313;-79
2023/05/11 10:26:05;;;;;;;4.38;1.90;;;9.60;99.90;;;;;;7609221;19;20617;-79
2023/05/11 10:28:38;;;;;;;2.03;1.20;;;9.60;99.90;;;;;;7602863;19;20023;-82
2023/05/11 10:31:11;;;;;;;;;;;9.50;99.90;;;;;;7610382;19;20067;-79
2023/05/11 10:33:44;;;;;;;1.33;1.13;;;9.40;99.90;;;;;;7608487;19;19974;-83
2023/05/11 10:36:22;;;;;;;1.95;1.00;;;9.40;99.90;;;;;;7605602;19;20094;-81
2023/05/11 10:38:57;;;;;;;2.03;1.00;;;9.30;99.90;;;;;;7617754;19;20022;-78
2023/05/11 10:41:50;;;;;;;2.03;1.38;;;9.30;99.90;;;;;;7601635;19;21382;-78
2023/05/11 10:44:49;;;;;;;2.88;1.17;;;9.30;99.90;;;;;;7607769;19;20290;-79
2023/05/11 10:47:43;;;;;;;3.15;1.90;;;9.30;99.90;;;;;;7596306;19;20022;-78
2023/05/11 10:50:42;;;;;;;4.70;2.17;;;9.30;99.90;;;;;;7582852;19;20689;-79
2023/05/11 10:53:19;;;;;;;3.75;2.25;;;9.30;99.90;;;;;;7604836;19;20025;-82
2023/05/11 10:56:15;;;;;;;3.35;2.22;;;9.30;99.90;;;;;;7591345;19;20190;-81
2023/05/11 10:59:19;;;;;;;5.07;3.65;;;9.40;99.90;;;;;;7598752;19;20014;-79
2023/05/11 11:01:57;;;;;;;6.35;4.43;;;9.50;99.90;;;;;;7603819;19;20018;-79
2023/05/11 11:04:46;;;;;;;3.65;2.33;;;9.50;99.90;;;;;;7599140;19;20391;-82
2023/05/11 11:07:19;;;;;;;3.63;2.10;;;9.60;99.90;;;;;;7589789;19;20028;-79
2023/05/11 11:10:05;;;;;;;3.65;2.00;;;9.60;99.90;;;;;;7595101;19;20089;-82
2023/05/11 11:12:59;;;;;;;1.30;0.88;;;9.60;99.90;;;;;;7627813;19;20075;-82
2023/05/11 11:15:54;;;;;;;1.80;1.30;;;9.60;99.90;;;;;;7612197;19;20408;-81
2023/05/11 11:18:32;;;;;;;1.35;1.05;;;9.60;99.90;;;;;;7583923;19;20026;-78
2023/05/11 11:21:06;;;;;;;1.70;0.77;;;9.70;99.90;;;;;;7612446;19;21106;-78
2023/05/11 11:23:47;;;;;;;0.85;0.75;;;9.70;99.90;;;;;;7615882;19;20086;-81
2023/05/11 11:26:46;;;;;;;1.33;0.93;;;9.60;99.90;;;;;;7600440;19;20006;-79
2023/05/11 11:29:19;;;;;;;2.08;1.30;;;9.50;99.90;;;;;;7599471;19;20057;-80
2023/05/11 11:31:51;;;;;;;3.45;2.40;;;9.60;99.90;;;;;;7597536;19;20014;-81
2023/05/11 11:34:23;;;;;;;3.00;1.95;;;9.70;99.90;;;;;;7597113;19;20021;-79
2023/05/11 11:37:05;;;;;;;2.83;1.70;;;9.80;99.90;;;;;;7590071;19;20047;-80
2023/05/11 11:39:40;;;;;;;1.08;0.90;;;9.70;99.90;;;;;;7584065;19;20025;-81
2023/05/11 11:42:38;;;;;;;0.93;0.68;;;9.70;99.90;;;;;;7578348;19;20925;-80
2023/05/11 11:45:30;;;;;;;2.13;0.90;;;9.70;99.90;;;;;;7581566;19;20015;-79
2023/05/11 11:48:15;;;;;;;2.65;1.20;;;9.70;99.90;;;;;;7589991;19;20017;-81
2023/05/11 11:50:59;;;;;;;1.00;0.70;;;9.70;99.90;;;;;;7594388;19;20018;-81
2023/05/11 11:53:38;;;;;;;1.10;0.80;;;9.60;99.90;;;;;;7603706;19;20045;-79
2023/05/11 11:56:13;;;;;;;1.42;1.05;;;9.60;99.90;;;;;;7594410;19;20373;-78
2023/05/11 11:58:45;;;;;;;2.88;1.77;;;9.60;99.90;;;;;;7590422;19;20036;-82
2023/05/11 12:01:21;;;;;;;3.40;2.13;;;9.60;99.90;;;;;;7619330;19;20010;-77
2023/05/11 12:04:04;;;;;;;4.07;2.58;;;9.60;99.90;;;;;;7616640;19;20025;-81
2023/05/11 12:06:38;;;;;;;1.55;1.00;;;9.60;99.90;;;;;;7618742;19;20013;-81
2023/05/11 12:09:18;;;;;;;1.17;1.08;;;9.60;99.90;;;;;;7578967;19;20014;-82
2023/05/11 12:11:51;;;;;;;2.10;1.08;;;9.60;99.90;;;;;;7546508;19;20022;-83
2023/05/11 12:14:25;;;;;;;1.38;1.13;;;9.60;99.90;;;;;;7589974;19;20031;-82
2023/05/11 12:17:02;;;;;;;1.02;0.90;;;9.60;99.90;;;;;;7543520;19;20032;-82
2023/05/11 12:19:35;;;;;;;1.40;1.00;;;9.60;99.90;;;;;;7584694;19;20018;-81
2023/05/11 12:22:09;;;;;;;3.92;2.00;;;9.60;99.90;;;;;;7588139;19;20095;-81
2023/05/11 12:24:42;;;;;;;2.17;1.58;;;9.60;99.90;;;;;;7583962;19;20554;-82
2023/05/11 12:27:17;;;;;;;3.77;1.90;;;9.70;99.90;;;;;;7595357;19;20408;-77
2023/05/11 12:29:50;;;;;;;3.13;1.75;;;9.80;99.90;;;;;;7563611;19;20065;-82
2023/05/11 12:32:30;;;;;;;4.03;1.57;;;9.70;99.90;;;;;;7587966;19;20021;-81
2023/05/11 12:35:04;;;;;;;1.67;1.50;;;9.80;99.90;;;;;;7591188;19;20283;-79
2023/05/11 12:37:39;;;;;;;4.05;1.42;;;9.90;99.90;;;;;;7549451;19;20120;-82
2023/05/11 12:40:13;;;;;;;3.15;1.33;;;9.80;99.90;;;;;;7582230;19;20945;-82
2023/05/11 12:42:52;;;;;;;2.47;1.05;;;9.80;99.90;;;;;;7571851;19;20644;-82
2023/05/11 12:45:26;;;;;;;1.52;1.00;;;9.80;99.90;;;;;;7578721;19;21050;-78
2023/05/11 12:47:59;;;;;;;1.20;1.10;;;9.80;99.90;;;;;;7586065;19;20057;-82
2023/05/11 12:50:31;;;;;;;3.05;0.75;;;9.90;99.90;;;;;;7582458;19;20018;-78
2023/05/11 12:53:17;;;;;;;0.63;0.60;;;9.80;99.90;;;;;;7570333;19;20748;-81
2023/05/11 12:55:58;;;;;;;1.42;0.82;;;9.80;99.90;;;;;;7560248;19;20078;-82
2023/05/11 12:58:39;;;;;;;0.73;0.65;;;9.70;99.90;;;;;;7518347;19;20022;-81
2023/05/11 13:01:11;;;;;;;1.65;1.20;;;9.70;99.90;;;;;;7560209;19;20419;-83
2023/05/11 13:03:46;;;;;;;1.60;1.20;;;9.70;99.90;;;;;;7570384;19;20297;-79
2023/05/11 13:06:20;;;;;;;3.30;1.50;;;9.70;99.90;;;;;;7567572;19;20010;-80
2023/05/11 13:08:52;;;;;;;2.03;1.45;;;9.70;99.90;;;;;;7574965;19;20022;-79
2023/05/11 13:11:25;;;;;;;2.03;1.40;;;9.70;99.90;;;;;;7609405;19;20019;-78
2023/05/11 13:13:58;;;;;;;4.40;1.33;;;9.70;99.90;;;;;;7599665;19;20030;-84
2023/05/11 13:16:32;;;;;;;3.67;1.50;;;9.70;99.90;;;;;;7578243;19;20356;-84
2023/05/11 13:19:07;;;;;;;3.15;1.70;;;9.70;99.90;;;;;;7582624;19;20026;-84
2023/05/11 13:21:39;;;;;;;5.00;2.08;;;9.80;99.90;;;;;;7587399;19;20017;-82
2023/05/11 13:24:19;;;;;;;3.75;1.98;;;9.80;99.90;;;;;;7602047;19;20010;-83
2023/05/11 13:26:56;;;;;;;2.95;1.00;;;9.80;99.90;;;;;;7582801;19;20435;-83
2023/05/11 13:29:29;;;;;;;1.67;1.10;;;9.80;99.90;;;;;;7572252;19;20017;-80
2023/05/11 13:32:04;;;;;;;2.60;1.45;;;9.80;99.90;;;;;;7567044;19;20011;-83
2023/05/11 13:34:37;;;;;;;2.20;1.05;;;9.80;99.90;;;;;;7594720;19;23947;-83
2023/05/11 13:37:13;;;;;;;4.97;1.65;;;9.80;99.90;;;;;;7583156;19;20018;-84
2023/05/11 13:39:46;;;;;;;3.70;2.15;;;9.80;99.90;;;;;;7583209;19;20553;-81
2023/05/11 13:42:19;;;;;;;2.22;1.73;;;9.80;99.90;;;;;;7589199;19;20035;-80